sensor_id;sensor_type;location;lat;lon;timestamp;P1;durP1;ratioP1;P2;durP2;ratioP2
75823;SDS011;64457;51.976;9.834;2023-06-24T00:00:02;14.63;;;7.73;;
75823;SDS011;64457;51.976;9.834;2023-06-24T00:02:34;13.13;;;7.40;;
75823;SDS011;64457;51.976;9.834;2023-06-24T00:05:02;17.97;;;8.43;;
75823;SDS011;64457;51.976;9.834;2023-06-24T00:07:32;22.80;;;8.60;;
75823;SDS011;64457;51.976;9.834;2023-06-24T00:10:01;23.83;;;8.50;;
75823;SDS011;64457;51.976;9.834;2023-06-24T00:12:29;16.40;;;8.37;;
75823;SDS011;64457;51.976;9.834;2023-06-24T00:14:58;14.10;;;7.30;;
75823;SDS011;64457;51.976;9.834;2023-06-24T00:17:25;16.40;;;8.30;;
75823;SDS011;64457;51.976;9.834;2023-06-24T00:19:55;21.33;;;8.37;;
75823;SDS011;64457;51.976;9.834;2023-06-24T00:22:23;23.40;;;6.93;;
75823;SDS011;64457;51.976;9.834;2023-06-24T00:24:50;22.40;;;8.10;;
75823;SDS011;64457;51.976;9.834;2023-06-24T00:27:17;24.83;;;8.30;;
75823;SDS011;64457;51.976;9.834;2023-06-24T00:29:45;16.23;;;8.53;;
75823;SDS011;64457;51.976;9.834;2023-06-24T00:32:12;17.00;;;8.33;;
75823;SDS011;64457;51.976;9.834;2023-06-24T00:34:40;14.43;;;7.13;;
75823;SDS011;64457;51.976;9.834;2023-06-24T00:37:14;17.80;;;7.60;;
75823;SDS011;64457;51.976;9.834;2023-06-24T00:39:45;15.20;;;7.53;;
75823;SDS011;64457;51.976;9.834;2023-06-24T00:42:14;16.13;;;8.27;;
75823;SDS011;64457;51.976;9.834;2023-06-24T00:44:41;20.70;;;8.50;;
75823;SDS011;64457;51.976;9.834;2023-06-24T00:47:09;15.67;;;8.03;;
75823;SDS011;64457;51.976;9.834;2023-06-24T00:49:37;20.70;;;8.33;;
75823;SDS011;64457;51.976;9.834;2023-06-24T00:52:06;14.93;;;7.83;;
75823;SDS011;64457;51.976;9.834;2023-06-24T00:54:38;20.43;;;7.97;;
75823;SDS011;64457;51.976;9.834;2023-06-24T00:57:05;20.00;;;8.67;;
75823;SDS011;64457;51.976;9.834;2023-06-24T00:59:33;20.70;;;8.23;;
75823;SDS011;64457;51.976;9.834;2023-06-24T01:02:08;21.10;;;8.53;;
75823;SDS011;64457;51.976;9.834;2023-06-24T01:04:36;15.90;;;8.50;;
75823;SDS011;64457;51.976;9.834;2023-06-24T01:07:04;12.40;;;7.40;;
75823;SDS011;64457;51.976;9.834;2023-06-24T01:09:32;16.47;;;8.10;;
75823;SDS011;64457;51.976;9.834;2023-06-24T01:12:03;13.20;;;8.30;;
75823;SDS011;64457;51.976;9.834;2023-06-24T01:14:32;16.43;;;8.63;;
75823;SDS011;64457;51.976;9.834;2023-06-24T01:17:03;16.17;;;8.10;;
75823;SDS011;64457;51.976;9.834;2023-06-24T01:19:51;14.77;;;7.87;;
75823;SDS011;64457;51.976;9.834;2023-06-24T01:25:59;17.93;;;9.10;;
75823;SDS011;64457;51.976;9.834;2023-06-24T01:29:03;18.07;;;9.30;;
75823;SDS011;64457;51.976;9.834;2023-06-24T01:31:54;20.87;;;8.67;;
75823;SDS011;64457;51.976;9.834;2023-06-24T01:34:33;14.83;;;8.60;;
75823;SDS011;64457;51.976;9.834;2023-06-24T01:37:08;21.80;;;8.80;;
75823;SDS011;64457;51.976;9.834;2023-06-24T01:39:46;18.77;;;9.23;;
75823;SDS011;64457;51.976;9.834;2023-06-24T01:42:18;16.33;;;9.10;;
75823;SDS011;64457;51.976;9.834;2023-06-24T01:44:48;41.57;;;9.63;;
75823;SDS011;64457;51.976;9.834;2023-06-24T01:47:18;18.90;;;9.47;;
75823;SDS011;64457;51.976;9.834;2023-06-24T01:49:50;18.20;;;8.70;;
75823;SDS011;64457;51.976;9.834;2023-06-24T01:52:21;21.50;;;9.73;;
75823;SDS011;64457;51.976;9.834;2023-06-24T01:54:51;22.93;;;9.00;;
75823;SDS011;64457;51.976;9.834;2023-06-24T01:57:20;21.80;;;8.83;;
75823;SDS011;64457;51.976;9.834;2023-06-24T01:59:49;23.47;;;9.60;;
75823;SDS011;64457;51.976;9.834;2023-06-24T02:02:21;27.60;;;10.20;;
75823;SDS011;64457;51.976;9.834;2023-06-24T02:04:50;16.37;;;9.00;;
75823;SDS011;64457;51.976;9.834;2023-06-24T02:07:21;18.60;;;9.57;;
75823;SDS011;64457;51.976;9.834;2023-06-24T02:09:50;17.73;;;10.23;;
75823;SDS011;64457;51.976;9.834;2023-06-24T02:12:18;29.63;;;10.37;;
75823;SDS011;64457;51.976;9.834;2023-06-24T02:14:47;22.30;;;9.93;;
75823;SDS011;64457;51.976;9.834;2023-06-24T02:17:16;14.80;;;9.83;;
75823;SDS011;64457;51.976;9.834;2023-06-24T02:19:47;15.33;;;9.70;;
75823;SDS011;64457;51.976;9.834;2023-06-24T02:22:16;17.53;;;9.30;;
75823;SDS011;64457;51.976;9.834;2023-06-24T02:24:44;18.90;;;8.73;;
75823;SDS011;64457;51.976;9.834;2023-06-24T02:27:12;14.70;;;9.30;;
75823;SDS011;64457;51.976;9.834;2023-06-24T02:29:40;15.80;;;8.17;;
75823;SDS011;64457;51.976;9.834;2023-06-24T02:32:08;15.23;;;8.50;;
75823;SDS011;64457;51.976;9.834;2023-06-24T02:34:36;13.67;;;8.27;;
75823;SDS011;64457;51.976;9.834;2023-06-24T02:37:06;19.10;;;8.87;;
75823;SDS011;64457;51.976;9.834;2023-06-24T02:39:33;16.53;;;8.40;;
75823;SDS011;64457;51.976;9.834;2023-06-24T02:42:03;15.03;;;9.40;;
75823;SDS011;64457;51.976;9.834;2023-06-24T02:44:31;18.10;;;9.17;;
75823;SDS011;64457;51.976;9.834;2023-06-24T02:46:59;24.50;;;9.23;;
75823;SDS011;64457;51.976;9.834;2023-06-24T02:49:27;16.47;;;9.33;;
75823;SDS011;64457;51.976;9.834;2023-06-24T02:51:56;16.50;;;9.30;;
75823;SDS011;64457;51.976;9.834;2023-06-24T02:54:26;14.80;;;8.50;;
75823;SDS011;64457;51.976;9.834;2023-06-24T02:56:54;16.20;;;8.23;;
75823;SDS011;64457;51.976;9.834;2023-06-24T02:59:23;18.37;;;7.80;;
75823;SDS011;64457;51.976;9.834;2023-06-24T03:01:50;22.20;;;8.20;;
75823;SDS011;64457;51.976;9.834;2023-06-24T03:04:18;14.70;;;7.67;;
75823;SDS011;64457;51.976;9.834;2023-06-24T03:06:46;16.03;;;8.30;;
75823;SDS011;64457;51.976;9.834;2023-06-24T03:09:15;16.90;;;8.60;;
75823;SDS011;64457;51.976;9.834;2023-06-24T03:11:45;18.50;;;9.37;;
75823;SDS011;64457;51.976;9.834;2023-06-24T03:14:12;16.10;;;8.63;;
75823;SDS011;64457;51.976;9.834;2023-06-24T03:16:40;22.10;;;8.03;;
75823;SDS011;64457;51.976;9.834;2023-06-24T03:19:08;16.50;;;8.30;;
75823;SDS011;64457;51.976;9.834;2023-06-24T03:21:35;17.00;;;8.57;;
75823;SDS011;64457;51.976;9.834;2023-06-24T03:24:03;25.43;;;10.03;;
75823;SDS011;64457;51.976;9.834;2023-06-24T03:26:32;22.37;;;7.87;;
75823;SDS011;64457;51.976;9.834;2023-06-24T03:29:01;17.17;;;7.57;;
75823;SDS011;64457;51.976;9.834;2023-06-24T03:31:29;11.50;;;7.70;;
75823;SDS011;64457;51.976;9.834;2023-06-24T03:33:57;14.13;;;7.33;;
75823;SDS011;64457;51.976;9.834;2023-06-24T03:36:24;14.23;;;8.03;;
75823;SDS011;64457;51.976;9.834;2023-06-24T03:38:52;21.83;;;8.23;;
75823;SDS011;64457;51.976;9.834;2023-06-24T03:41:19;12.33;;;7.60;;
75823;SDS011;64457;51.976;9.834;2023-06-24T03:43:47;18.00;;;7.90;;
75823;SDS011;64457;51.976;9.834;2023-06-24T03:46:16;14.27;;;7.50;;
75823;SDS011;64457;51.976;9.834;2023-06-24T03:48:44;17.40;;;7.37;;
75823;SDS011;64457;51.976;9.834;2023-06-24T03:51:12;18.07;;;7.97;;
75823;SDS011;64457;51.976;9.834;2023-06-24T03:53:39;19.33;;;7.30;;
75823;SDS011;64457;51.976;9.834;2023-06-24T03:56:07;17.03;;;8.23;;
75823;SDS011;64457;51.976;9.834;2023-06-24T03:58:34;13.07;;;8.77;;
75823;SDS011;64457;51.976;9.834;2023-06-24T04:01:02;12.60;;;8.17;;
75823;SDS011;64457;51.976;9.834;2023-06-24T04:03:31;18.80;;;8.40;;
75823;SDS011;64457;51.976;9.834;2023-06-24T04:05:59;11.30;;;7.13;;
75823;SDS011;64457;51.976;9.834;2023-06-24T04:08:27;13.00;;;7.40;;
75823;SDS011;64457;51.976;9.834;2023-06-24T04:10:55;13.60;;;7.40;;
75823;SDS011;64457;51.976;9.834;2023-06-24T04:13:25;12.83;;;8.20;;
75823;SDS011;64457;51.976;9.834;2023-06-24T04:15:52;12.83;;;7.53;;
75823;SDS011;64457;51.976;9.834;2023-06-24T04:18:20;16.60;;;7.90;;
75823;SDS011;64457;51.976;9.834;2023-06-24T04:20:49;18.10;;;7.63;;
75823;SDS011;64457;51.976;9.834;2023-06-24T04:23:16;14.77;;;8.07;;
75823;SDS011;64457;51.976;9.834;2023-06-24T04:25:44;16.40;;;7.60;;
75823;SDS011;64457;51.976;9.834;2023-06-24T04:28:11;12.67;;;7.87;;
75823;SDS011;64457;51.976;9.834;2023-06-24T04:30:39;12.20;;;7.37;;
75823;SDS011;64457;51.976;9.834;2023-06-24T04:33:09;17.03;;;7.90;;
75823;SDS011;64457;51.976;9.834;2023-06-24T04:35:36;13.47;;;7.80;;
75823;SDS011;64457;51.976;9.834;2023-06-24T04:38:05;12.83;;;7.20;;
75823;SDS011;64457;51.976;9.834;2023-06-24T04:40:33;11.83;;;6.70;;
75823;SDS011;64457;51.976;9.834;2023-06-24T04:43:00;13.93;;;8.00;;
75823;SDS011;64457;51.976;9.834;2023-06-24T04:45:27;12.20;;;7.43;;
75823;SDS011;64457;51.976;9.834;2023-06-24T04:47:55;14.40;;;7.97;;
75823;SDS011;64457;51.976;9.834;2023-06-24T04:50:22;15.10;;;8.40;;
75823;SDS011;64457;51.976;9.834;2023-06-24T04:52:53;15.50;;;8.10;;
75823;SDS011;64457;51.976;9.834;2023-06-24T04:55:23;11.00;;;6.73;;
75823;SDS011;64457;51.976;9.834;2023-06-24T04:57:51;16.77;;;7.30;;
75823;SDS011;64457;51.976;9.834;2023-06-24T05:00:18;14.00;;;6.73;;
75823;SDS011;64457;51.976;9.834;2023-06-24T05:02:48;11.63;;;7.20;;
75823;SDS011;64457;51.976;9.834;2023-06-24T05:05:15;12.00;;;7.20;;
75823;SDS011;64457;51.976;9.834;2023-06-24T05:07:43;13.00;;;7.90;;
75823;SDS011;64457;51.976;9.834;2023-06-24T05:10:10;18.53;;;6.93;;
75823;SDS011;64457;51.976;9.834;2023-06-24T05:12:39;14.30;;;7.53;;
75823;SDS011;64457;51.976;9.834;2023-06-24T05:15:07;16.40;;;7.10;;
75823;SDS011;64457;51.976;9.834;2023-06-24T05:17:35;11.90;;;7.47;;
75823;SDS011;64457;51.976;9.834;2023-06-24T05:20:03;11.33;;;7.60;;
75823;SDS011;64457;51.976;9.834;2023-06-24T05:22:32;12.60;;;7.40;;
75823;SDS011;64457;51.976;9.834;2023-06-24T05:25:00;12.03;;;7.57;;
75823;SDS011;64457;51.976;9.834;2023-06-24T05:27:28;15.17;;;6.67;;
75823;SDS011;64457;51.976;9.834;2023-06-24T05:29:56;11.97;;;7.00;;
75823;SDS011;64457;51.976;9.834;2023-06-24T05:32:24;12.20;;;6.30;;
75823;SDS011;64457;51.976;9.834;2023-06-24T05:34:51;14.00;;;6.70;;
75823;SDS011;64457;51.976;9.834;2023-06-24T05:37:18;10.80;;;6.27;;
75823;SDS011;64457;51.976;9.834;2023-06-24T05:39:49;10.90;;;5.63;;
75823;SDS011;64457;51.976;9.834;2023-06-24T05:42:18;10.27;;;5.90;;
75823;SDS011;64457;51.976;9.834;2023-06-24T05:44:46;12.93;;;5.23;;
75823;SDS011;64457;51.976;9.834;2023-06-24T05:47:15;8.83;;;4.10;;
75823;SDS011;64457;51.976;9.834;2023-06-24T05:49:42;9.77;;;4.43;;
75823;SDS011;64457;51.976;9.834;2023-06-24T05:52:11;8.37;;;4.10;;
75823;SDS011;64457;51.976;9.834;2023-06-24T05:54:38;9.30;;;4.10;;
75823;SDS011;64457;51.976;9.834;2023-06-24T05:57:06;7.60;;;3.70;;
75823;SDS011;64457;51.976;9.834;2023-06-24T05:59:35;10.23;;;3.87;;
75823;SDS011;64457;51.976;9.834;2023-06-24T06:02:03;8.60;;;3.70;;
75823;SDS011;64457;51.976;9.834;2023-06-24T06:04:33;9.70;;;3.77;;
75823;SDS011;64457;51.976;9.834;2023-06-24T06:07:01;8.30;;;3.20;;
75823;SDS011;64457;51.976;9.834;2023-06-24T06:09:30;8.27;;;3.50;;
75823;SDS011;64457;51.976;9.834;2023-06-24T06:11:58;7.87;;;3.30;;
75823;SDS011;64457;51.976;9.834;2023-06-24T06:14:26;11.13;;;3.63;;
75823;SDS011;64457;51.976;9.834;2023-06-24T06:16:53;7.50;;;2.83;;
75823;SDS011;64457;51.976;9.834;2023-06-24T06:19:21;6.70;;;2.60;;
75823;SDS011;64457;51.976;9.834;2023-06-24T06:21:51;5.93;;;2.87;;
75823;SDS011;64457;51.976;9.834;2023-06-24T06:24:19;8.40;;;2.90;;
75823;SDS011;64457;51.976;9.834;2023-06-24T06:26:47;5.27;;;2.60;;
75823;SDS011;64457;51.976;9.834;2023-06-24T06:29:14;6.93;;;2.73;;
75823;SDS011;64457;51.976;9.834;2023-06-24T06:31:43;7.27;;;3.03;;
75823;SDS011;64457;51.976;9.834;2023-06-24T06:34:10;5.90;;;2.30;;
75823;SDS011;64457;51.976;9.834;2023-06-24T06:36:38;5.30;;;2.40;;
75823;SDS011;64457;51.976;9.834;2023-06-24T06:39:07;3.63;;;2.33;;
75823;SDS011;64457;51.976;9.834;2023-06-24T06:41:35;6.53;;;2.37;;
75823;SDS011;64457;51.976;9.834;2023-06-24T06:44:03;3.83;;;1.93;;
75823;SDS011;64457;51.976;9.834;2023-06-24T06:46:31;10.47;;;2.40;;
75823;SDS011;64457;51.976;9.834;2023-06-24T06:48:59;4.67;;;1.97;;
75823;SDS011;64457;51.976;9.834;2023-06-24T06:51:27;3.20;;;2.00;;
75823;SDS011;64457;51.976;9.834;2023-06-24T06:53:54;3.63;;;1.93;;
75823;SDS011;64457;51.976;9.834;2023-06-24T06:56:24;3.83;;;2.10;;
75823;SDS011;64457;51.976;9.834;2023-06-24T06:58:52;2.50;;;1.70;;
75823;SDS011;64457;51.976;9.834;2023-06-24T07:01:20;5.40;;;1.60;;
75823;SDS011;64457;51.976;9.834;2023-06-24T07:03:48;3.00;;;1.80;;
75823;SDS011;64457;51.976;9.834;2023-06-24T07:06:17;7.97;;;2.33;;
75823;SDS011;64457;51.976;9.834;2023-06-24T07:08:45;7.50;;;1.90;;
75823;SDS011;64457;51.976;9.834;2023-06-24T07:11:14;8.00;;;1.80;;
75823;SDS011;64457;51.976;9.834;2023-06-24T07:13:44;5.93;;;1.97;;
75823;SDS011;64457;51.976;9.834;2023-06-24T07:16:12;4.47;;;2.00;;
75823;SDS011;64457;51.976;9.834;2023-06-24T07:18:40;4.23;;;2.10;;
75823;SDS011;64457;51.976;9.834;2023-06-24T07:21:08;3.30;;;2.10;;
75823;SDS011;64457;51.976;9.834;2023-06-24T07:23:35;5.23;;;1.90;;
75823;SDS011;64457;51.976;9.834;2023-06-24T07:26:03;3.30;;;1.83;;
75823;SDS011;64457;51.976;9.834;2023-06-24T07:28:31;3.30;;;2.20;;
75823;SDS011;64457;51.976;9.834;2023-06-24T07:31:01;3.70;;;1.70;;
75823;SDS011;64457;51.976;9.834;2023-06-24T07:33:28;6.23;;;2.50;;
75823;SDS011;64457;51.976;9.834;2023-06-24T07:35:56;5.23;;;2.20;;
75823;SDS011;64457;51.976;9.834;2023-06-24T07:38:23;7.13;;;2.53;;
75823;SDS011;64457;51.976;9.834;2023-06-24T07:40:51;6.43;;;2.00;;
75823;SDS011;64457;51.976;9.834;2023-06-24T07:43:19;5.03;;;2.20;;
75823;SDS011;64457;51.976;9.834;2023-06-24T07:45:47;3.67;;;1.47;;
75823;SDS011;64457;51.976;9.834;2023-06-24T07:48:16;1.87;;;1.70;;
75823;SDS011;64457;51.976;9.834;2023-06-24T07:50:43;2.70;;;1.70;;
75823;SDS011;64457;51.976;9.834;2023-06-24T07:53:11;4.07;;;1.70;;
75823;SDS011;64457;51.976;9.834;2023-06-24T07:55:39;2.53;;;1.60;;
75823;SDS011;64457;51.976;9.834;2023-06-24T07:58:06;5.10;;;1.87;;
75823;SDS011;64457;51.976;9.834;2023-06-24T08:00:34;5.30;;;2.10;;
75823;SDS011;64457;51.976;9.834;2023-06-24T08:03:04;4.07;;;2.07;;
75823;SDS011;64457;51.976;9.834;2023-06-24T08:05:33;4.17;;;1.93;;
75823;SDS011;64457;51.976;9.834;2023-06-24T08:08:00;2.73;;;1.90;;
75823;SDS011;64457;51.976;9.834;2023-06-24T08:10:28;2.73;;;1.77;;
75823;SDS011;64457;51.976;9.834;2023-06-24T08:12:55;3.13;;;1.70;;
75823;SDS011;64457;51.976;9.834;2023-06-24T08:15:23;2.03;;;1.50;;
75823;SDS011;64457;51.976;9.834;2023-06-24T08:17:51;2.33;;;1.60;;
75823;SDS011;64457;51.976;9.834;2023-06-24T08:20:19;2.60;;;1.90;;
75823;SDS011;64457;51.976;9.834;2023-06-24T08:22:49;2.43;;;1.67;;
75823;SDS011;64457;51.976;9.834;2023-06-24T08:25:17;5.00;;;1.80;;
75823;SDS011;64457;51.976;9.834;2023-06-24T08:27:44;3.60;;;1.70;;
75823;SDS011;64457;51.976;9.834;2023-06-24T08:30:13;2.85;;;1.73;;
75823;SDS011;64457;51.976;9.834;2023-06-24T08:32:41;7.18;;;1.92;;
75823;SDS011;64457;51.976;9.834;2023-06-24T08:35:09;2.77;;;1.60;;
75823;SDS011;64457;51.976;9.834;2023-06-24T08:37:37;4.77;;;1.77;;
75823;SDS011;64457;51.976;9.834;2023-06-24T08:40:08;2.57;;;1.80;;
75823;SDS011;64457;51.976;9.834;2023-06-24T08:42:38;2.00;;;1.63;;
75823;SDS011;64457;51.976;9.834;2023-06-24T08:45:06;2.30;;;1.87;;
75823;SDS011;64457;51.976;9.834;2023-06-24T08:47:34;3.23;;;1.83;;
75823;SDS011;64457;51.976;9.834;2023-06-24T08:50:03;3.20;;;2.17;;
75823;SDS011;64457;51.976;9.834;2023-06-24T08:52:35;3.90;;;1.90;;
75823;SDS011;64457;51.976;9.834;2023-06-24T08:55:07;2.80;;;2.30;;
75823;SDS011;64457;51.976;9.834;2023-06-24T08:57:40;2.60;;;1.90;;
75823;SDS011;64457;51.976;9.834;2023-06-24T09:00:08;3.73;;;2.30;;
75823;SDS011;64457;51.976;9.834;2023-06-24T09:02:37;6.27;;;2.43;;
75823;SDS011;64457;51.976;9.834;2023-06-24T09:05:05;3.67;;;2.67;;
75823;SDS011;64457;51.976;9.834;2023-06-24T09:07:34;3.77;;;2.60;;
75823;SDS011;64457;51.976;9.834;2023-06-24T09:10:02;5.67;;;2.80;;
75823;SDS011;64457;51.976;9.834;2023-06-24T09:12:32;6.30;;;3.30;;
75823;SDS011;64457;51.976;9.834;2023-06-24T09:15:00;5.23;;;2.97;;
75823;SDS011;64457;51.976;9.834;2023-06-24T09:17:30;10.17;;;3.43;;
75823;SDS011;64457;51.976;9.834;2023-06-24T09:20:03;4.73;;;3.03;;
75823;SDS011;64457;51.976;9.834;2023-06-24T09:22:32;10.23;;;3.00;;
75823;SDS011;64457;51.976;9.834;2023-06-24T09:25:00;7.60;;;3.30;;
75823;SDS011;64457;51.976;9.834;2023-06-24T09:27:32;9.30;;;3.83;;
75823;SDS011;64457;51.976;9.834;2023-06-24T09:30:00;4.50;;;2.97;;
75823;SDS011;64457;51.976;9.834;2023-06-24T09:32:29;6.20;;;3.07;;
75823;SDS011;64457;51.976;9.834;2023-06-24T09:34:57;6.10;;;3.43;;
75823;SDS011;64457;51.976;9.834;2023-06-24T09:37:25;8.47;;;3.40;;
75823;SDS011;64457;51.976;9.834;2023-06-24T09:39:56;8.37;;;3.60;;
75823;SDS011;64457;51.976;9.834;2023-06-24T09:42:24;6.37;;;3.53;;
75823;SDS011;64457;51.976;9.834;2023-06-24T09:44:56;6.27;;;3.60;;
75823;SDS011;64457;51.976;9.834;2023-06-24T09:47:23;6.50;;;3.17;;
75823;SDS011;64457;51.976;9.834;2023-06-24T09:49:52;6.57;;;3.70;;
75823;SDS011;64457;51.976;9.834;2023-06-24T09:52:21;5.87;;;3.40;;
75823;SDS011;64457;51.976;9.834;2023-06-24T09:54:51;5.47;;;3.50;;
75823;SDS011;64457;51.976;9.834;2023-06-24T09:57:25;7.37;;;3.27;;
75823;SDS011;64457;51.976;9.834;2023-06-24T09:59:57;5.10;;;3.20;;
75823;SDS011;64457;51.976;9.834;2023-06-24T10:02:27;8.07;;;3.50;;
75823;SDS011;64457;51.976;9.834;2023-06-24T10:04:56;5.20;;;3.40;;
75823;SDS011;64457;51.976;9.834;2023-06-24T10:07:26;7.90;;;3.77;;
75823;SDS011;64457;51.976;9.834;2023-06-24T10:09:55;6.67;;;3.53;;
75823;SDS011;64457;51.976;9.834;2023-06-24T10:12:22;16.47;;;4.30;;
75823;SDS011;64457;51.976;9.834;2023-06-24T10:14:52;11.57;;;4.10;;
75823;SDS011;64457;51.976;9.834;2023-06-24T10:17:21;5.83;;;3.43;;
75823;SDS011;64457;51.976;9.834;2023-06-24T10:19:51;6.57;;;3.37;;
75823;SDS011;64457;51.976;9.834;2023-06-24T10:22:21;7.47;;;3.43;;
75823;SDS011;64457;51.976;9.834;2023-06-24T10:24:51;7.17;;;3.90;;
75823;SDS011;64457;51.976;9.834;2023-06-24T10:27:20;9.50;;;3.40;;
75823;SDS011;64457;51.976;9.834;2023-06-24T10:29:50;9.20;;;3.10;;
75823;SDS011;64457;51.976;9.834;2023-06-24T10:32:19;4.60;;;3.10;;
75823;SDS011;64457;51.976;9.834;2023-06-24T10:34:53;8.83;;;3.37;;
75823;SDS011;64457;51.976;9.834;2023-06-24T10:37:22;7.50;;;3.03;;
75823;SDS011;64457;51.976;9.834;2023-06-24T10:39:51;4.70;;;2.70;;
75823;SDS011;64457;51.976;9.834;2023-06-24T10:42:28;6.57;;;3.47;;
75823;SDS011;64457;51.976;9.834;2023-06-24T10:45:12;6.47;;;3.63;;
75823;SDS011;64457;51.976;9.834;2023-06-24T10:47:47;5.00;;;3.23;;
75823;SDS011;64457;51.976;9.834;2023-06-24T10:50:18;6.17;;;3.37;;
75823;SDS011;64457;51.976;9.834;2023-06-24T10:52:48;5.20;;;3.13;;
75823;SDS011;64457;51.976;9.834;2023-06-24T10:55:21;14.40;;;3.50;;
75823;SDS011;64457;51.976;9.834;2023-06-24T10:57:49;8.60;;;3.23;;
75823;SDS011;64457;51.976;9.834;2023-06-24T11:00:17;6.77;;;3.47;;
75823;SDS011;64457;51.976;9.834;2023-06-24T11:02:48;7.23;;;3.50;;
75823;SDS011;64457;51.976;9.834;2023-06-24T11:05:16;6.57;;;3.87;;
75823;SDS011;64457;51.976;9.834;2023-06-24T11:07:44;6.97;;;3.77;;
75823;SDS011;64457;51.976;9.834;2023-06-24T11:10:14;7.63;;;3.40;;
75823;SDS011;64457;51.976;9.834;2023-06-24T11:12:43;7.53;;;3.90;;
75823;SDS011;64457;51.976;9.834;2023-06-24T11:15:12;6.70;;;3.57;;
75823;SDS011;64457;51.976;9.834;2023-06-24T11:17:40;5.53;;;3.07;;
75823;SDS011;64457;51.976;9.834;2023-06-24T11:20:10;7.60;;;3.53;;
75823;SDS011;64457;51.976;9.834;2023-06-24T11:22:40;7.50;;;4.00;;
75823;SDS011;64457;51.976;9.834;2023-06-24T11:25:14;8.03;;;3.30;;
75823;SDS011;64457;51.976;9.834;2023-06-24T11:27:43;8.83;;;3.90;;
75823;SDS011;64457;51.976;9.834;2023-06-24T11:30:11;8.03;;;3.37;;
75823;SDS011;64457;51.976;9.834;2023-06-24T11:32:40;7.90;;;3.80;;
75823;SDS011;64457;51.976;9.834;2023-06-24T11:35:11;5.17;;;3.37;;
75823;SDS011;64457;51.976;9.834;2023-06-24T11:37:40;7.93;;;3.83;;
75823;SDS011;64457;51.976;9.834;2023-06-24T11:40:10;7.27;;;3.87;;
75823;SDS011;64457;51.976;9.834;2023-06-24T11:42:39;4.80;;;3.30;;
75823;SDS011;64457;51.976;9.834;2023-06-24T11:45:10;5.97;;;3.53;;
75823;SDS011;64457;51.976;9.834;2023-06-24T11:47:40;5.10;;;3.20;;
75823;SDS011;64457;51.976;9.834;2023-06-24T11:50:09;7.23;;;3.50;;
75823;SDS011;64457;51.976;9.834;2023-06-24T11:52:38;8.70;;;4.20;;
75823;SDS011;64457;51.976;9.834;2023-06-24T11:55:16;6.13;;;3.70;;
75823;SDS011;64457;51.976;9.834;2023-06-24T11:57:52;7.13;;;3.80;;
75823;SDS011;64457;51.976;9.834;2023-06-24T12:00:23;6.20;;;3.73;;
75823;SDS011;64457;51.976;9.834;2023-06-24T12:02:53;8.60;;;3.90;;
75823;SDS011;64457;51.976;9.834;2023-06-24T12:05:24;5.93;;;3.70;;
75823;SDS011;64457;51.976;9.834;2023-06-24T12:07:57;5.73;;;3.87;;
75823;SDS011;64457;51.976;9.834;2023-06-24T12:10:27;7.47;;;4.43;;
75823;SDS011;64457;51.976;9.834;2023-06-24T12:12:57;7.17;;;3.97;;
75823;SDS011;64457;51.976;9.834;2023-06-24T12:15:26;7.53;;;3.80;;
75823;SDS011;64457;51.976;9.834;2023-06-24T12:17:55;5.87;;;3.63;;
75823;SDS011;64457;51.976;9.834;2023-06-24T12:20:24;6.00;;;3.87;;
75823;SDS011;64457;51.976;9.834;2023-06-24T12:22:52;6.87;;;4.17;;
75823;SDS011;64457;51.976;9.834;2023-06-24T12:25:20;7.27;;;3.93;;
75823;SDS011;64457;51.976;9.834;2023-06-24T12:27:49;6.97;;;4.17;;
75823;SDS011;64457;51.976;9.834;2023-06-24T12:30:17;6.70;;;3.90;;
75823;SDS011;64457;51.976;9.834;2023-06-24T12:32:46;6.60;;;4.13;;
75823;SDS011;64457;51.976;9.834;2023-06-24T12:35:14;5.70;;;3.70;;
75823;SDS011;64457;51.976;9.834;2023-06-24T12:37:43;6.90;;;4.03;;
75823;SDS011;64457;51.976;9.834;2023-06-24T12:40:11;6.90;;;4.30;;
75823;SDS011;64457;51.976;9.834;2023-06-24T12:42:39;8.70;;;4.03;;
75823;SDS011;64457;51.976;9.834;2023-06-24T12:45:07;11.70;;;4.10;;
75823;SDS011;64457;51.976;9.834;2023-06-24T12:47:36;6.80;;;4.00;;
75823;SDS011;64457;51.976;9.834;2023-06-24T12:50:04;5.77;;;3.70;;
75823;SDS011;64457;51.976;9.834;2023-06-24T12:52:34;5.70;;;4.00;;
75823;SDS011;64457;51.976;9.834;2023-06-24T12:55:06;6.07;;;3.40;;
75823;SDS011;64457;51.976;9.834;2023-06-24T12:57:37;8.20;;;3.93;;
75823;SDS011;64457;51.976;9.834;2023-06-24T13:00:05;7.63;;;4.23;;
75823;SDS011;64457;51.976;9.834;2023-06-24T13:02:35;8.23;;;3.90;;
75823;SDS011;64457;51.976;9.834;2023-06-24T13:05:05;6.80;;;3.83;;
75823;SDS011;64457;51.976;9.834;2023-06-24T13:07:34;5.63;;;3.63;;
75823;SDS011;64457;51.976;9.834;2023-06-24T13:10:02;8.40;;;4.30;;
75823;SDS011;64457;51.976;9.834;2023-06-24T13:12:33;6.90;;;4.20;;
75823;SDS011;64457;51.976;9.834;2023-06-24T13:15:01;6.40;;;4.37;;
75823;SDS011;64457;51.976;9.834;2023-06-24T13:17:29;6.40;;;4.00;;
75823;SDS011;64457;51.976;9.834;2023-06-24T13:19:57;7.00;;;4.00;;
75823;SDS011;64457;51.976;9.834;2023-06-24T13:22:25;12.13;;;4.13;;
75823;SDS011;64457;51.976;9.834;2023-06-24T13:24:54;6.63;;;3.80;;
75823;SDS011;64457;51.976;9.834;2023-06-24T13:27:22;6.20;;;4.17;;
75823;SDS011;64457;51.976;9.834;2023-06-24T13:29:53;5.30;;;3.60;;
75823;SDS011;64457;51.976;9.834;2023-06-24T13:32:21;6.37;;;3.87;;
75823;SDS011;64457;51.976;9.834;2023-06-24T13:34:48;8.20;;;4.57;;
75823;SDS011;64457;51.976;9.834;2023-06-24T13:37:16;6.50;;;4.20;;
75823;SDS011;64457;51.976;9.834;2023-06-24T13:39:44;10.43;;;3.90;;
75823;SDS011;64457;51.976;9.834;2023-06-24T13:42:13;7.60;;;3.87;;
75823;SDS011;64457;51.976;9.834;2023-06-24T13:44:40;5.60;;;4.03;;
75823;SDS011;64457;51.976;9.834;2023-06-24T13:47:11;7.57;;;4.27;;
75823;SDS011;64457;51.976;9.834;2023-06-24T13:49:41;12.20;;;3.90;;
75823;SDS011;64457;51.976;9.834;2023-06-24T13:52:10;6.90;;;3.87;;
75823;SDS011;64457;51.976;9.834;2023-06-24T13:54:37;6.53;;;3.90;;
75823;SDS011;64457;51.976;9.834;2023-06-24T13:57:05;8.50;;;4.57;;
75823;SDS011;64457;51.976;9.834;2023-06-24T13:59:33;8.80;;;4.80;;
75823;SDS011;64457;51.976;9.834;2023-06-24T14:02:01;7.37;;;4.03;;
75823;SDS011;64457;51.976;9.834;2023-06-24T14:04:31;6.97;;;4.23;;
75823;SDS011;64457;51.976;9.834;2023-06-24T14:07:00;6.93;;;3.87;;
75823;SDS011;64457;51.976;9.834;2023-06-24T14:09:31;8.60;;;3.90;;
75823;SDS011;64457;51.976;9.834;2023-06-24T14:11:59;5.90;;;4.13;;
75823;SDS011;64457;51.976;9.834;2023-06-24T14:14:28;6.90;;;3.43;;
75823;SDS011;64457;51.976;9.834;2023-06-24T14:16:56;5.73;;;3.90;;
75823;SDS011;64457;51.976;9.834;2023-06-24T14:19:24;96.60;;;9.40;;
75823;SDS011;64457;51.976;9.834;2023-06-24T14:21:57;24.63;;;7.97;;
75823;SDS011;64457;51.976;9.834;2023-06-24T14:24:25;60.10;;;17.33;;
75823;SDS011;64457;51.976;9.834;2023-06-24T14:26:54;9.00;;;4.87;;
75823;SDS011;64457;51.976;9.834;2023-06-24T14:29:21;6.37;;;3.87;;
75823;SDS011;64457;51.976;9.834;2023-06-24T14:31:49;6.80;;;3.83;;
75823;SDS011;64457;51.976;9.834;2023-06-24T14:34:17;6.57;;;4.00;;
75823;SDS011;64457;51.976;9.834;2023-06-24T14:36:46;7.20;;;4.20;;
75823;SDS011;64457;51.976;9.834;2023-06-24T14:39:17;12.03;;;4.23;;
75823;SDS011;64457;51.976;9.834;2023-06-24T14:41:45;7.00;;;3.63;;
75823;SDS011;64457;51.976;9.834;2023-06-24T14:44:16;7.50;;;3.90;;
75823;SDS011;64457;51.976;9.834;2023-06-24T14:46:44;6.20;;;3.57;;
75823;SDS011;64457;51.976;9.834;2023-06-24T14:49:12;5.70;;;3.77;;
75823;SDS011;64457;51.976;9.834;2023-06-24T14:51:41;7.77;;;4.00;;
75823;SDS011;64457;51.976;9.834;2023-06-24T14:54:09;7.87;;;4.20;;